sensor_id;sensor_type;location;lat;lon;timestamp;P1;durP1;ratioP1;P2;durP2;ratioP2
31095;SDS011;17749;51.962;8.560;2023-05-14T05:00:28;6.85;;;5.15;;
31095;SDS011;17749;51.962;8.560;2023-05-14T05:02:56;7.22;;;5.07;;
31095;SDS011;17749;51.962;8.560;2023-05-14T05:05:23;4.90;;;4.40;;
31095;SDS011;17749;51.962;8.560;2023-05-14T05:07:51;6.40;;;4.43;;
31095;SDS011;17749;51.962;8.560;2023-05-14T05:10:32;5.15;;;4.65;;
31095;SDS011;17749;51.962;8.560;2023-05-14T05:13:00;4.50;;;3.75;;
31095;SDS011;17749;51.962;8.560;2023-05-14T05:15:27;6.82;;;4.25;;
31095;SDS011;17749;51.962;8.560;2023-05-14T05:17:53;4.18;;;3.55;;
31095;SDS011;17749;51.962;8.560;2023-05-14T05:20:21;4.20;;;3.70;;
31095;SDS011;17749;51.962;8.560;2023-05-14T05:22:49;4.68;;;4.22;;
31095;SDS011;17749;51.962;8.560;2023-05-14T05:25:16;4.35;;;3.67;;
31095;SDS011;17749;51.962;8.560;2023-05-14T05:27:43;4.90;;;4.40;;
31095;SDS011;17749;51.962;8.560;2023-05-14T05:30:10;4.28;;;3.72;;
31095;SDS011;17749;51.962;8.560;2023-05-14T05:32:37;5.32;;;3.63;;
31095;SDS011;17749;51.962;8.560;2023-05-14T05:35:04;4.65;;;3.47;;
31095;SDS011;17749;51.962;8.560;2023-05-14T05:37:32;3.85;;;3.45;;
31095;SDS011;17749;51.962;8.560;2023-05-14T05:39:59;3.80;;;3.40;;
31095;SDS011;17749;51.962;8.560;2023-05-14T05:42:25;4.85;;;3.60;;
31095;SDS011;17749;51.962;8.560;2023-05-14T05:44:52;4.00;;;3.05;;
31095;SDS011;17749;51.962;8.560;2023-05-14T05:47:19;3.47;;;3.05;;
31095;SDS011;17749;51.962;8.560;2023-05-14T05:49:46;4.90;;;2.90;;
31095;SDS011;17749;51.962;8.560;2023-05-14T05:52:13;4.72;;;3.05;;
31095;SDS011;17749;51.962;8.560;2023-05-14T05:54:40;4.05;;;3.00;;
31095;SDS011;17749;51.962;8.560;2023-05-14T05:57:07;6.13;;;3.40;;
31095;SDS011;17749;51.962;8.560;2023-05-14T05:59:34;4.68;;;3.22;;
31095;SDS011;17749;51.962;8.560;2023-05-14T06:02:01;4.85;;;3.10;;
31095;SDS011;17749;51.962;8.560;2023-05-14T06:04:28;4.13;;;3.03;;
31095;SDS011;17749;51.962;8.560;2023-05-14T06:06:55;4.45;;;3.00;;
31095;SDS011;17749;51.962;8.560;2023-05-14T06:09:22;7.43;;;3.20;;
31095;SDS011;17749;51.962;8.560;2023-05-14T06:11:49;3.97;;;3.42;;
31095;SDS011;17749;51.962;8.560;2023-05-14T06:14:16;4.28;;;3.60;;
31095;SDS011;17749;51.962;8.560;2023-05-14T06:16:43;3.50;;;3.17;;
31095;SDS011;17749;51.962;8.560;2023-05-14T06:19:10;3.60;;;3.28;;
31095;SDS011;17749;51.962;8.560;2023-05-14T06:21:38;4.10;;;3.42;;
31095;SDS011;17749;51.962;8.560;2023-05-14T06:24:05;3.75;;;3.33;;
31095;SDS011;17749;51.962;8.560;2023-05-14T06:26:32;3.50;;;3.20;;
31095;SDS011;17749;51.962;8.560;2023-05-14T06:28:59;4.00;;;3.20;;
31095;SDS011;17749;51.962;8.560;2023-05-14T06:31:26;3.20;;;2.90;;
31095;SDS011;17749;51.962;8.560;2023-05-14T06:33:53;4.30;;;3.20;;
31095;SDS011;17749;51.962;8.560;2023-05-14T06:36:20;3.33;;;2.85;;
31095;SDS011;17749;51.962;8.560;2023-05-14T06:38:47;3.08;;;2.78;;
31095;SDS011;17749;51.962;8.560;2023-05-14T06:41:14;5.82;;;3.08;;
31095;SDS011;17749;51.962;8.560;2023-05-14T06:43:42;3.25;;;2.67;;
31095;SDS011;17749;51.962;8.560;2023-05-14T06:46:09;5.03;;;2.80;;
31095;SDS011;17749;51.962;8.560;2023-05-14T06:48:36;3.00;;;2.70;;
31095;SDS011;17749;51.962;8.560;2023-05-14T06:51:03;4.38;;;2.88;;
31095;SDS011;17749;51.962;8.560;2023-05-14T06:53:29;3.58;;;2.90;;
31095;SDS011;17749;51.962;8.560;2023-05-14T06:55:56;4.00;;;2.97;;
31095;SDS011;17749;51.962;8.560;2023-05-14T06:58:23;3.80;;;2.70;;
31095;SDS011;17749;51.962;8.560;2023-05-14T07:00:50;2.42;;;2.20;;
31095;SDS011;17749;51.962;8.560;2023-05-14T07:03:17;3.30;;;2.80;;
31095;SDS011;17749;51.962;8.560;2023-05-14T07:05:44;3.08;;;2.60;;
31095;SDS011;17749;51.962;8.560;2023-05-14T07:08:12;4.85;;;2.80;;
31095;SDS011;17749;51.962;8.560;2023-05-14T07:10:39;4.03;;;2.50;;
31095;SDS011;17749;51.962;8.560;2023-05-14T07:13:07;2.72;;;2.40;;
31095;SDS011;17749;51.962;8.560;2023-05-14T07:15:34;5.05;;;2.70;;
31095;SDS011;17749;51.962;8.560;2023-05-14T07:18:01;3.05;;;2.75;;
31095;SDS011;17749;51.962;8.560;2023-05-14T07:20:28;6.43;;;2.85;;
31095;SDS011;17749;51.962;8.560;2023-05-14T07:22:55;4.43;;;3.00;;
31095;SDS011;17749;51.962;8.560;2023-05-14T07:25:22;4.05;;;2.83;;
31095;SDS011;17749;51.962;8.560;2023-05-14T07:27:49;3.80;;;3.10;;
31095;SDS011;17749;51.962;8.560;2023-05-14T07:30:17;4.15;;;2.60;;
31095;SDS011;17749;51.962;8.560;2023-05-14T07:32:44;3.45;;;2.80;;
31095;SDS011;17749;51.962;8.560;2023-05-14T07:35:11;5.78;;;3.38;;
31095;SDS011;17749;51.962;8.560;2023-05-14T07:37:38;6.10;;;3.30;;
31095;SDS011;17749;51.962;8.560;2023-05-14T07:40:05;3.28;;;2.97;;
31095;SDS011;17749;51.962;8.560;2023-05-14T07:42:33;3.10;;;2.63;;
31095;SDS011;17749;51.962;8.560;2023-05-14T07:45:03;4.20;;;3.20;;
31095;SDS011;17749;51.962;8.560;2023-05-14T07:47:30;4.45;;;3.80;;
31095;SDS011;17749;51.962;8.560;2023-05-14T07:49:58;3.72;;;3.15;;
31095;SDS011;17749;51.962;8.560;2023-05-14T07:52:25;5.00;;;3.30;;
31095;SDS011;17749;51.962;8.560;2023-05-14T07:54:52;4.95;;;3.75;;
31095;SDS011;17749;51.962;8.560;2023-05-14T07:57:19;4.07;;;3.40;;
31095;SDS011;17749;51.962;8.560;2023-05-14T07:59:47;4.80;;;3.83;;
31095;SDS011;17749;51.962;8.560;2023-05-14T08:02:14;4.55;;;3.67;;
31095;SDS011;17749;51.962;8.560;2023-05-14T08:04:42;6.20;;;3.58;;
31095;SDS011;17749;51.962;8.560;2023-05-14T08:07:10;5.72;;;3.72;;
31095;SDS011;17749;51.962;8.560;2023-05-14T08:09:37;3.60;;;3.28;;
31095;SDS011;17749;51.962;8.560;2023-05-14T08:12:04;7.57;;;4.03;;
31095;SDS011;17749;51.962;8.560;2023-05-14T08:14:31;4.50;;;2.88;;
31095;SDS011;17749;51.962;8.560;2023-05-14T08:16:58;3.10;;;2.80;;
31095;SDS011;17749;51.962;8.560;2023-05-14T08:19:25;3.35;;;2.80;;
31095;SDS011;17749;51.962;8.560;2023-05-14T08:21:53;3.20;;;2.90;;
31095;SDS011;17749;51.962;8.560;2023-05-14T08:24:20;4.22;;;2.78;;
31095;SDS011;17749;51.962;8.560;2023-05-14T08:26:47;5.38;;;3.08;;
31095;SDS011;17749;51.962;8.560;2023-05-14T08:29:14;4.70;;;3.00;;
31095;SDS011;17749;51.962;8.560;2023-05-14T08:31:42;3.05;;;2.75;;
31095;SDS011;17749;51.962;8.560;2023-05-14T08:34:09;3.05;;;2.40;;
31095;SDS011;17749;51.962;8.560;2023-05-14T08:36:36;3.78;;;2.58;;
31095;SDS011;17749;51.962;8.560;2023-05-14T08:39:04;4.07;;;2.45;;
31095;SDS011;17749;51.962;8.560;2023-05-14T08:41:33;3.35;;;2.55;;
31095;SDS011;17749;51.962;8.560;2023-05-14T08:44:09;3.00;;;2.45;;
31095;SDS011;17749;51.962;8.560;2023-05-14T08:46:38;4.47;;;2.67;;
31095;SDS011;17749;51.962;8.560;2023-05-14T08:51:45;3.20;;;2.50;;
31095;SDS011;17749;51.962;8.560;2023-05-14T08:54:15;6.38;;;2.30;;
31095;SDS011;17749;51.962;8.560;2023-05-14T08:56:43;5.57;;;2.42;;
31095;SDS011;17749;51.962;8.560;2023-05-14T08:59:17;2.55;;;2.30;;
31095;SDS011;17749;51.962;8.560;2023-05-14T09:01:47;2.47;;;2.28;;
31095;SDS011;17749;51.962;8.560;2023-05-14T09:04:19;2.55;;;2.05;;
31095;SDS011;17749;51.962;8.560;2023-05-14T09:06:48;3.50;;;2.30;;
31095;SDS011;17749;51.962;8.560;2023-05-14T09:09:16;4.22;;;2.20;;
31095;SDS011;17749;51.962;8.560;2023-05-14T09:11:50;4.95;;;2.42;;
31095;SDS011;17749;51.962;8.560;2023-05-14T09:14:18;2.85;;;2.35;;
31095;SDS011;17749;51.962;8.560;2023-05-14T09:16:46;4.38;;;2.40;;
31095;SDS011;17749;51.962;8.560;2023-05-14T09:19:14;2.47;;;2.28;;
31095;SDS011;17749;51.962;8.560;2023-05-14T09:21:45;1.80;;;1.70;;
31095;SDS011;17749;51.962;8.560;2023-05-14T09:24:23;6.38;;;2.65;;
31095;SDS011;17749;51.962;8.560;2023-05-14T09:26:51;3.33;;;2.78;;
31095;SDS011;17749;51.962;8.560;2023-05-14T09:29:20;4.95;;;3.40;;
31095;SDS011;17749;51.962;8.560;2023-05-14T09:31:49;2.22;;;1.95;;
31095;SDS011;17749;51.962;8.560;2023-05-14T09:34:27;4.35;;;2.00;;
31095;SDS011;17749;51.962;8.560;2023-05-14T09:36:56;3.90;;;2.85;;
31095;SDS011;17749;51.962;8.560;2023-05-14T09:39:24;2.38;;;1.98;;
31095;SDS011;17749;51.962;8.560;2023-05-14T09:41:52;2.50;;;2.30;;
31095;SDS011;17749;51.962;8.560;2023-05-14T09:44:19;4.28;;;2.45;;
31095;SDS011;17749;51.962;8.560;2023-05-14T09:46:46;2.30;;;2.10;;
31095;SDS011;17749;51.962;8.560;2023-05-14T09:49:14;2.40;;;2.15;;
31095;SDS011;17749;51.962;8.560;2023-05-14T09:51:41;2.30;;;2.10;;
31095;SDS011;17749;51.962;8.560;2023-05-14T09:54:08;2.38;;;2.00;;
31095;SDS011;17749;51.962;8.560;2023-05-14T09:56:35;2.90;;;1.80;;
31095;SDS011;17749;51.962;8.560;2023-05-14T09:59:03;2.33;;;2.00;;
31095;SDS011;17749;51.962;8.560;2023-05-14T10:01:30;2.40;;;1.73;;
31095;SDS011;17749;51.962;8.560;2023-05-14T10:04:05;2.15;;;1.88;;
31095;SDS011;17749;51.962;8.560;2023-05-14T10:06:37;2.85;;;1.80;;
31095;SDS011;17749;51.962;8.560;2023-05-14T10:09:11;2.20;;;1.80;;
31095;SDS011;17749;51.962;8.560;2023-05-14T10:11:41;2.28;;;2.08;;
31095;SDS011;17749;51.962;8.560;2023-05-14T10:14:25;1.85;;;1.50;;
31095;SDS011;17749;51.962;8.560;2023-05-14T10:16:58;4.32;;;1.77;;
31095;SDS011;17749;51.962;8.560;2023-05-14T10:19:27;1.98;;;1.73;;
31095;SDS011;17749;51.962;8.560;2023-05-14T10:22:04;3.33;;;1.90;;
31095;SDS011;17749;51.962;8.560;2023-05-14T10:24:33;1.92;;;1.70;;
31095;SDS011;17749;51.962;8.560;2023-05-14T10:27:01;4.25;;;2.00;;
31095;SDS011;17749;51.962;8.560;2023-05-14T10:29:35;1.88;;;1.70;;
31095;SDS011;17749;51.962;8.560;2023-05-14T10:32:04;2.38;;;1.58;;
31095;SDS011;17749;51.962;8.560;2023-05-14T10:37:13;2.38;;;1.80;;
31095;SDS011;17749;51.962;8.560;2023-05-14T10:39:42;2.55;;;1.83;;
31095;SDS011;17749;51.962;8.560;2023-05-14T10:42:27;2.17;;;1.85;;
31095;SDS011;17749;51.962;8.560;2023-05-14T10:44:59;3.85;;;2.00;;
31095;SDS011;17749;51.962;8.560;2023-05-14T10:47:33;2.65;;;2.10;;
31095;SDS011;17749;51.962;8.560;2023-05-14T10:50:03;2.17;;;1.98;;
31095;SDS011;17749;51.962;8.560;2023-05-14T10:52:32;2.78;;;2.00;;
31095;SDS011;17749;51.962;8.560;2023-05-14T10:55:01;2.25;;;2.03;;
31095;SDS011;17749;51.962;8.560;2023-05-14T10:57:30;2.22;;;2.00;;
31095;SDS011;17749;51.962;8.560;2023-05-14T10:59:58;2.45;;;2.08;;
31095;SDS011;17749;51.962;8.560;2023-05-14T11:02:27;2.08;;;1.85;;
31095;SDS011;17749;51.962;8.560;2023-05-14T11:04:55;2.78;;;2.20;;
31095;SDS011;17749;51.962;8.560;2023-05-14T11:07:29;3.65;;;2.25;;
31095;SDS011;17749;51.962;8.560;2023-05-14T11:12:26;2.42;;;1.90;;
31095;SDS011;17749;51.962;8.560;2023-05-14T11:14:57;2.35;;;1.90;;
31095;SDS011;17749;51.962;8.560;2023-05-14T11:17:25;6.47;;;2.00;;
31095;SDS011;17749;51.962;8.560;2023-05-14T11:19:59;2.15;;;1.90;;
31095;SDS011;17749;51.962;8.560;2023-05-14T11:26:59;3.33;;;1.88;;
31095;SDS011;17749;51.962;8.560;2023-05-14T11:37:40;4.00;;;2.05;;
31095;SDS011;17749;51.962;8.560;2023-05-14T11:53:10;3.58;;;1.98;;
31095;SDS011;17749;51.962;8.560;2023-05-14T11:55:37;2.17;;;1.90;;
31095;SDS011;17749;51.962;8.560;2023-05-14T11:58:04;2.35;;;2.00;;
31095;SDS011;17749;51.962;8.560;2023-05-14T12:00:31;2.95;;;1.92;;
31095;SDS011;17749;51.962;8.560;2023-05-14T12:02:59;2.08;;;1.80;;
31095;SDS011;17749;51.962;8.560;2023-05-14T12:05:26;3.13;;;2.20;;
31095;SDS011;17749;51.962;8.560;2023-05-14T12:07:53;2.83;;;2.00;;
31095;SDS011;17749;51.962;8.560;2023-05-14T12:10:21;3.30;;;1.80;;
31095;SDS011;17749;51.962;8.560;2023-05-14T12:12:49;2.38;;;2.10;;
31095;SDS011;17749;51.962;8.560;2023-05-14T12:15:16;2.85;;;1.80;;
31095;SDS011;17749;51.962;8.560;2023-05-14T12:17:49;2.97;;;2.00;;
31095;SDS011;17749;51.962;8.560;2023-05-14T12:20:19;2.33;;;1.90;;
31095;SDS011;17749;51.962;8.560;2023-05-14T12:22:46;2.15;;;1.92;;
31095;SDS011;17749;51.962;8.560;2023-05-14T12:25:13;2.17;;;1.83;;
31095;SDS011;17749;51.962;8.560;2023-05-14T12:27:42;3.22;;;2.30;;
31095;SDS011;17749;51.962;8.560;2023-05-14T12:30:11;2.58;;;1.73;;
31095;SDS011;17749;51.962;8.560;2023-05-14T12:32:47;2.67;;;2.30;;
31095;SDS011;17749;51.962;8.560;2023-05-14T12:35:17;2.30;;;1.92;;
31095;SDS011;17749;51.962;8.560;2023-05-14T12:37:46;2.85;;;1.92;;
31095;SDS011;17749;51.962;8.560;2023-05-14T12:40:13;2.17;;;1.88;;
31095;SDS011;17749;51.962;8.560;2023-05-14T12:42:40;2.22;;;1.95;;
31095;SDS011;17749;51.962;8.560;2023-05-14T12:45:07;2.38;;;1.80;;
31095;SDS011;17749;51.962;8.560;2023-05-14T12:47:34;2.20;;;1.75;;
31095;SDS011;17749;51.962;8.560;2023-05-14T12:50:02;2.50;;;1.80;;
31095;SDS011;17749;51.962;8.560;2023-05-14T12:52:29;2.08;;;1.55;;
31095;SDS011;17749;51.962;8.560;2023-05-14T12:54:59;2.85;;;1.55;;
31095;SDS011;17749;51.962;8.560;2023-05-14T12:57:26;3.33;;;1.83;;
31095;SDS011;17749;51.962;8.560;2023-05-14T12:59:55;1.90;;;1.70;;
31095;SDS011;17749;51.962;8.560;2023-05-14T13:02:22;1.95;;;1.60;;
31095;SDS011;17749;51.962;8.560;2023-05-14T13:04:49;1.88;;;1.60;;
31095;SDS011;17749;51.962;8.560;2023-05-14T13:07:16;2.28;;;1.55;;
31095;SDS011;17749;51.962;8.560;2023-05-14T13:09:44;3.25;;;1.70;;
31095;SDS011;17749;51.962;8.560;2023-05-14T13:12:10;4.10;;;1.90;;
31095;SDS011;17749;51.962;8.560;2023-05-14T13:14:37;2.45;;;1.67;;
31095;SDS011;17749;51.962;8.560;2023-05-14T13:17:04;3.13;;;1.90;;
31095;SDS011;17749;51.962;8.560;2023-05-14T13:19:33;2.47;;;1.85;;
31095;SDS011;17749;51.962;8.560;2023-05-14T13:22:00;2.58;;;2.00;;
31095;SDS011;17749;51.962;8.560;2023-05-14T13:24:27;3.35;;;2.00;;
31095;SDS011;17749;51.962;8.560;2023-05-14T13:26:54;2.03;;;1.55;;
31095;SDS011;17749;51.962;8.560;2023-05-14T13:29:22;2.20;;;1.73;;
31095;SDS011;17749;51.962;8.560;2023-05-14T13:31:49;2.35;;;1.80;;
31095;SDS011;17749;51.962;8.560;2023-05-14T13:34:16;3.00;;;1.98;;
31095;SDS011;17749;51.962;8.560;2023-05-14T13:36:43;2.50;;;1.80;;
31095;SDS011;17749;51.962;8.560;2023-05-14T13:39:10;1.45;;;1.30;;
31095;SDS011;17749;51.962;8.560;2023-05-14T13:41:40;2.42;;;1.65;;
31095;SDS011;17749;51.962;8.560;2023-05-14T13:44:07;2.42;;;1.92;;
31095;SDS011;17749;51.962;8.560;2023-05-14T13:46:34;3.88;;;2.22;;
31095;SDS011;17749;51.962;8.560;2023-05-14T13:49:01;2.92;;;2.22;;
31095;SDS011;17749;51.962;8.560;2023-05-14T13:51:28;2.03;;;1.77;;
31095;SDS011;17749;51.962;8.560;2023-05-14T13:53:55;2.72;;;2.03;;
31095;SDS011;17749;51.962;8.560;2023-05-14T13:56:22;2.30;;;2.05;;
31095;SDS011;17749;51.962;8.560;2023-05-14T13:58:49;2.03;;;1.83;;
31095;SDS011;17749;51.962;8.560;2023-05-14T14:01:16;2.38;;;1.98;;
31095;SDS011;17749;51.962;8.560;2023-05-14T14:03:43;3.13;;;2.10;;
31095;SDS011;17749;51.962;8.560;2023-05-14T14:06:10;2.33;;;1.98;;
31095;SDS011;17749;51.962;8.560;2023-05-14T14:08:37;2.38;;;2.13;;
31095;SDS011;17749;51.962;8.560;2023-05-14T14:11:04;3.33;;;1.70;;
31095;SDS011;17749;51.962;8.560;2023-05-14T14:13:31;1.90;;;1.52;;
31095;SDS011;17749;51.962;8.560;2023-05-14T14:15:58;1.95;;;1.60;;
31095;SDS011;17749;51.962;8.560;2023-05-14T14:18:25;5.07;;;1.90;;
31095;SDS011;17749;51.962;8.560;2023-05-14T14:20:52;1.73;;;1.45;;
31095;SDS011;17749;51.962;8.560;2023-05-14T14:23:19;2.38;;;1.42;;
31095;SDS011;17749;51.962;8.560;2023-05-14T14:25:46;1.95;;;1.55;;
31095;SDS011;17749;51.962;8.560;2023-05-14T14:28:13;2.10;;;1.80;;
31095;SDS011;17749;51.962;8.560;2023-05-14T14:30:40;2.42;;;2.03;;
31095;SDS011;17749;51.962;8.560;2023-05-14T14:33:09;2.25;;;1.80;;
31095;SDS011;17749;51.962;8.560;2023-05-14T14:35:36;2.00;;;1.50;;
31095;SDS011;17749;51.962;8.560;2023-05-14T14:38:04;2.20;;;1.80;;
31095;SDS011;17749;51.962;8.560;2023-05-14T14:40:31;1.55;;;1.23;;
31095;SDS011;17749;51.962;8.560;2023-05-14T14:42:59;2.42;;;1.85;;
31095;SDS011;17749;51.962;8.560;2023-05-14T14:45:27;2.75;;;1.52;;
31095;SDS011;17749;51.962;8.560;2023-05-14T14:48:21;4.18;;;2.60;;
31095;SDS011;17749;51.962;8.560;2023-05-14T14:50:53;1.60;;;1.50;;
31095;SDS011;17749;51.962;8.560;2023-05-14T14:53:21;3.05;;;2.08;;
31095;SDS011;17749;51.962;8.560;2023-05-14T14:55:48;3.55;;;2.28;;
31095;SDS011;17749;51.962;8.560;2023-05-14T14:58:17;3.22;;;2.10;;
31095;SDS011;17749;51.962;8.560;2023-05-14T15:00:45;2.67;;;2.17;;
31095;SDS011;17749;51.962;8.560;2023-05-14T15:03:13;3.22;;;2.25;;
31095;SDS011;17749;51.962;8.560;2023-05-14T15:05:41;2.20;;;1.98;;
31095;SDS011;17749;51.962;8.560;2023-05-14T15:08:08;4.32;;;1.92;;
31095;SDS011;17749;51.962;8.560;2023-05-14T15:10:36;3.13;;;2.45;;
31095;SDS011;17749;51.962;8.560;2023-05-14T15:13:04;2.28;;;2.00;;
31095;SDS011;17749;51.962;8.560;2023-05-14T15:15:32;2.38;;;1.83;;
31095;SDS011;17749;51.962;8.560;2023-05-14T15:18:01;2.83;;;2.20;;
31095;SDS011;17749;51.962;8.560;2023-05-14T15:20:29;2.40;;;1.85;;
31095;SDS011;17749;51.962;8.560;2023-05-14T15:22:57;2.38;;;2.00;;
31095;SDS011;17749;51.962;8.560;2023-05-14T15:25:25;2.00;;;1.60;;
31095;SDS011;17749;51.962;8.560;2023-05-14T15:27:52;2.50;;;2.10;;
31095;SDS011;17749;51.962;8.560;2023-05-14T15:30:19;3.38;;;2.10;;
31095;SDS011;17749;51.962;8.560;2023-05-14T15:32:46;3.78;;;2.00;;
31095;SDS011;17749;51.962;8.560;2023-05-14T15:35:13;3.03;;;2.00;;
31095;SDS011;17749;51.962;8.560;2023-05-14T15:37:41;5.57;;;2.38;;
31095;SDS011;17749;51.962;8.560;2023-05-14T15:40:09;2.92;;;2.38;;
31095;SDS011;17749;51.962;8.560;2023-05-14T15:42:38;2.92;;;2.22;;
31095;SDS011;17749;51.962;8.560;2023-05-14T15:45:07;2.63;;;2.40;;
31095;SDS011;17749;51.962;8.560;2023-05-14T15:47:35;2.55;;;2.35;;
31095;SDS011;17749;51.962;8.560;2023-05-14T15:50:03;3.85;;;2.55;;
31095;SDS011;17749;51.962;8.560;2023-05-14T15:52:30;4.30;;;2.20;;
31095;SDS011;17749;51.962;8.560;2023-05-14T15:54:57;4.65;;;1.90;;
31095;SDS011;17749;51.962;8.560;2023-05-14T15:57:25;3.78;;;2.65;;
31095;SDS011;17749;51.962;8.560;2023-05-14T15:59:52;3.38;;;2.30;;
31095;SDS011;17749;51.962;8.560;2023-05-14T16:02:19;2.75;;;1.95;;
31095;SDS011;17749;51.962;8.560;2023-05-14T16:04:46;2.17;;;1.95;;
31095;SDS011;17749;51.962;8.560;2023-05-14T16:07:15;5.82;;;2.22;;
31095;SDS011;17749;51.962;8.560;2023-05-14T16:09:42;3.47;;;2.30;;
31095;SDS011;17749;51.962;8.560;2023-05-14T16:12:08;2.83;;;2.05;;
31095;SDS011;17749;51.962;8.560;2023-05-14T16:14:36;2.55;;;1.83;;
31095;SDS011;17749;51.962;8.560;2023-05-14T16:17:06;3.00;;;1.98;;
31095;SDS011;17749;51.962;8.560;2023-05-14T16:19:33;3.30;;;2.20;;
31095;SDS011;17749;51.962;8.560;2023-05-14T16:22:00;3.30;;;2.00;;
31095;SDS011;17749;51.962;8.560;2023-05-14T16:24:27;3.80;;;2.28;;
31095;SDS011;17749;51.962;8.560;2023-05-14T16:26:54;3.08;;;2.22;;
31095;SDS011;17749;51.962;8.560;2023-05-14T16:29:21;2.47;;;2.28;;
31095;SDS011;17749;51.962;8.560;2023-05-14T16:31:48;2.45;;;2.05;;
31095;SDS011;17749;51.962;8.560;2023-05-14T16:34:15;2.38;;;1.92;;
31095;SDS011;17749;51.962;8.560;2023-05-14T16:36:42;3.20;;;2.60;;
31095;SDS011;17749;51.962;8.560;2023-05-14T16:39:09;3.08;;;2.50;;
31095;SDS011;17749;51.962;8.560;2023-05-14T16:41:37;4.45;;;2.33;;
31095;SDS011;17749;51.962;8.560;2023-05-14T16:44:03;3.75;;;2.65;;
31095;SDS011;17749;51.962;8.560;2023-05-14T16:46:31;4.15;;;2.40;;
31095;SDS011;17749;51.962;8.560;2023-05-14T16:48:58;4.93;;;3.17;;
31095;SDS011;17749;51.962;8.560;2023-05-14T16:51:25;3.83;;;2.97;;
31095;SDS011;17749;51.962;8.560;2023-05-14T16:53:52;4.60;;;2.30;;
31095;SDS011;17749;51.962;8.560;2023-05-14T16:56:20;3.17;;;2.47;;
31095;SDS011;17749;51.962;8.560;2023-05-14T16:58:48;2.60;;;2.33;;
31095;SDS011;17749;51.962;8.560;2023-05-14T17:01:15;3.40;;;2.45;;
31095;SDS011;17749;51.962;8.560;2023-05-14T17:03:42;4.97;;;2.28;;
31095;SDS011;17749;51.962;8.560;2023-05-14T17:06:11;3.85;;;2.38;;
31095;SDS011;17749;51.962;8.560;2023-05-14T17:08:38;3.83;;;2.63;;
31095;SDS011;17749;51.962;8.560;2023-05-14T17:11:05;3.40;;;2.75;;
31095;SDS011;17749;51.962;8.560;2023-05-14T17:13:32;3.45;;;3.10;;
31095;SDS011;17749;51.962;8.560;2023-05-14T17:16:00;3.03;;;2.72;;
31095;SDS011;17749;51.962;8.560;2023-05-14T17:18:27;5.15;;;3.10;;
31095;SDS011;17749;51.962;8.560;2023-05-14T17:20:55;4.45;;;2.58;;
31095;SDS011;17749;51.962;8.560;2023-05-14T17:23:22;2.90;;;2.30;;
31095;SDS011;17749;51.962;8.560;2023-05-14T17:25:49;4.35;;;2.83;;
31095;SDS011;17749;51.962;8.560;2023-05-14T17:28:16;2.80;;;2.55;;
31095;SDS011;17749;51.962;8.560;2023-05-14T17:30:44;2.80;;;2.45;;
31095;SDS011;17749;51.962;8.560;2023-05-14T17:33:13;3.67;;;2.53;;
31095;SDS011;17749;51.962;8.560;2023-05-14T17:35:40;3.03;;;2.42;;
31095;SDS011;17749;51.962;8.560;2023-05-14T17:38:12;3.35;;;2.63;;
31095;SDS011;17749;51.962;8.560;2023-05-14T17:40:39;3.42;;;2.45;;
31095;SDS011;17749;51.962;8.560;2023-05-14T17:43:09;3.90;;;2.17;;
31095;SDS011;17749;51.962;8.560;2023-05-14T17:45:37;3.40;;;2.72;;
31095;SDS011;17749;51.962;8.560;2023-05-14T17:48:19;3.13;;;2.40;;
31095;SDS011;17749;51.962;8.560;2023-05-14T17:50:47;10.15;;;2.80;;
31095;SDS011;17749;51.962;8.560;2023-05-14T17:53:14;2.90;;;2.60;;
31095;SDS011;17749;51.962;8.560;2023-05-14T17:55:41;3.25;;;2.65;;
31095;SDS011;17749;51.962;8.560;2023-05-14T17:58:09;4.68;;;2.47;;
31095;SDS011;17749;51.962;8.560;2023-05-14T18:03:06;4.63;;;2.63;;
31095;SDS011;17749;51.962;8.560;2023-05-14T18:05:34;3.45;;;3.10;;
31095;SDS011;17749;51.962;8.560;2023-05-14T18:08:02;4.28;;;2.90;;
31095;SDS011;17749;51.962;8.560;2023-05-14T18:10:29;4.63;;;3.10;;
31095;SDS011;17749;51.962;8.560;2023-05-14T18:12:58;4.63;;;3.25;;
31095;SDS011;17749;51.962;8.560;2023-05-14T18:15:25;3.22;;;2.90;;
31095;SDS011;17749;51.962;8.560;2023-05-14T18:17:53;4.30;;;2.83;;
31095;SDS011;17749;51.962;8.560;2023-05-14T18:20:22;4.88;;;2.80;;
31095;SDS011;17749;51.962;8.560;2023-05-14T18:22:48;3.05;;;2.47;;
31095;SDS011;17749;51.962;8.560;2023-05-14T18:25:32;3.90;;;3.10;;
31095;SDS011;17749;51.962;8.560;2023-05-14T18:28:00;4.07;;;3.00;;
31095;SDS011;17749;51.962;8.560;2023-05-14T18:30:29;5.43;;;2.90;;
31095;SDS011;17749;51.962;8.560;2023-05-14T18:32:59;4.10;;;3.10;;
31095;SDS011;17749;51.962;8.560;2023-05-14T18:35:27;3.80;;;3.20;;
31095;SDS011;17749;51.962;8.560;2023-05-14T18:37:54;3.53;;;2.88;;
31095;SDS011;17749;51.962;8.560;2023-05-14T18:40:22;5.07;;;3.60;;
31095;SDS011;17749;51.962;8.560;2023-05-14T18:42:49;3.85;;;3.15;;
31095;SDS011;17749;51.962;8.560;2023-05-14T18:45:19;4.65;;;3.53;;
31095;SDS011;17749;51.962;8.560;2023-05-14T18:47:49;7.75;;;3.72;;
31095;SDS011;17749;51.962;8.560;2023-05-14T18:50:35;6.32;;;2.58;;
31095;SDS011;17749;51.962;8.560;2023-05-14T18:53:38;2.20;;;1.90;;
31095;SDS011;17749;51.962;8.560;2023-05-14T18:56:06;4.25;;;2.88;;
31095;SDS011;17749;51.962;8.560;2023-05-14T18:58:40;6.13;;;3.05;;
31095;SDS011;17749;51.962;8.560;2023-05-14T19:01:32;2.95;;;2.50;;
31095;SDS011;17749;51.962;8.560;2023-05-14T19:03:59;4.85;;;2.58;;
31095;SDS011;17749;51.962;8.560;2023-05-14T19:06:29;3.25;;;2.50;;
31095;SDS011;17749;51.962;8.560;2023-05-14T19:08:57;3.70;;;2.65;;
31095;SDS011;17749;51.962;8.560;2023-05-14T19:11:24;2.92;;;2.47;;
31095;SDS011;17749;51.962;8.560;2023-05-14T19:13:54;3.65;;;2.75;;
31095;SDS011;17749;51.962;8.560;2023-05-14T19:16:22;2.72;;;2.22;;
31095;SDS011;17749;51.962;8.560;2023-05-14T19:18:50;4.32;;;3.13;;
31095;SDS011;17749;51.962;8.560;2023-05-14T19:21:20;4.18;;;2.80;;
31095;SDS011;17749;51.962;8.560;2023-05-14T19:23:50;5.30;;;3.08;;
31095;SDS011;17749;51.962;8.560;2023-05-14T19:26:29;3.53;;;3.17;;
31095;SDS011;17749;51.962;8.560;2023-05-14T19:28:56;3.47;;;3.17;;
31095;SDS011;17749;51.962;8.560;2023-05-14T19:31:28;6.20;;;3.78;;
31095;SDS011;17749;51.962;8.560;2023-05-14T19:34:03;8.73;;;3.83;;
31095;SDS011;17749;51.962;8.560;2023-05-14T19:36:37;7.72;;;3.30;;
31095;SDS011;17749;51.962;8.560;2023-05-14T19:39:22;3.67;;;3.00;;
31095;SDS011;17749;51.962;8.560;2023-05-14T19:41:57;3.17;;;2.78;;
31095;SDS011;17749;51.962;8.560;2023-05-14T19:44:29;4.30;;;2.88;;
31095;SDS011;17749;51.962;8.560;2023-05-14T19:46:57;3.00;;;2.60;;
31095;SDS011;17749;51.962;8.560;2023-05-14T19:49:29;3.40;;;2.70;;
31095;SDS011;17749;51.962;8.560;2023-05-14T19:52:03;6.15;;;3.47;;
31095;SDS011;17749;51.962;8.560;2023-05-14T19:54:30;4.45;;;2.65;;
31095;SDS011;17749;51.962;8.560;2023-05-14T19:57:01;4.30;;;3.38;;
31095;SDS011;17749;51.962;8.560;2023-05-14T19:59:32;3.45;;;3.00;;
31095;SDS011;17749;51.962;8.560;2023-05-14T20:02:00;4.00;;;2.92;;
31095;SDS011;17749;51.962;8.560;2023-05-14T20:04:31;3.67;;;2.47;;
31095;SDS011;17749;51.962;8.560;2023-05-14T20:06:59;3.80;;;2.88;;
31095;SDS011;17749;51.962;8.560;2023-05-14T20:09:29;3.47;;;2.70;;
31095;SDS011;17749;51.962;8.560;2023-05-14T20:11:56;2.97;;;2.67;;
31095;SDS011;17749;51.962;8.560;2023-05-14T20:14:23;2.88;;;2.30;;
31095;SDS011;17749;51.962;8.560;2023-05-14T20:16:51;5.00;;;2.75;;
31095;SDS011;17749;51.962;8.560;2023-05-14T20:19:18;5.57;;;3.40;;
31095;SDS011;17749;51.962;8.560;2023-05-14T20:21:47;5.93;;;3.00;;
31095;SDS011;17749;51.962;8.560;2023-05-14T20:24:17;3.95;;;2.80;;
31095;SDS011;17749;51.962;8.560;2023-05-14T20:26:58;3.60;;;2.85;;
31095;SDS011;17749;51.962;8.560;2023-05-14T20:29:25;3.55;;;2.85;;
